Time;durP1;ratioP1;P1;durP2;ratioP2;P2;SDS_P1;SDS_P2;PMS_P1;PMS_P2;Temp;Humidity;BMP_temperature;BMP_pressure;BME280_temperature;BME280_humidity;BME280_pressure;Samples;Min_cycle;Max_cycle;Signal;HPM_P1;HPM_P2
2022/01/12 04:30:20;;;;;;;8.53;6.00;;;;;;;2.69;55.07;100661.88;8182583;23;21099;-83
2022/01/12 04:33:43;;;;;;;9.97;7.07;;;;;;;2.50;54.69;100645.53;6806543;29;20226;-84
2022/01/12 04:37:04;;;;;;;9.37;7.37;;;;;;;1.62;55.12;100631.44;6801737;29;20222;-85
2022/01/12 04:40:26;;;;;;;8.40;7.37;;;;;;;1.68;57.78;100667.38;6794823;29;20210;-85
2022/01/12 04:43:49;;;;;;;10.10;7.47;;;;;;;1.61;57.69;100644.81;6793853;29;20215;-84
2022/01/12 04:47:27;;;;;;;10.23;7.87;;;;;;;1.88;57.85;100689.00;6795701;29;20274;-85
2022/01/12 04:50:49;;;;;;;8.80;7.73;;;;;;;2.22;57.01;100698.16;6795029;29;20713;-84
2022/01/12 04:54:11;;;;;;;10.40;7.43;;;;;;;2.37;56.08;100679.28;6792987;29;20239;-85
2022/01/12 04:57:32;;;;;;;12.77;9.23;;;;;;;2.61;54.80;100682.03;6794832;29;20218;-85
2022/01/12 05:01:02;;;;;;;14.33;9.63;;;;;;;2.40;55.31;100672.91;6794123;29;20234;-84
2022/01/12 05:08:16;;;;;;;11.30;7.83;;;;;;;1.67;57.47;100684.28;6797016;29;20214;-84
2022/01/12 05:15:34;;;;;;;10.20;7.30;;;;;;;2.33;56.81;100716.88;6727846;29;20235;-84
2022/01/12 05:18:57;;;;;;;8.57;7.50;;;;;;;2.04;56.13;100712.72;6723504;29;20213;-85
2022/01/12 05:22:20;;;;;;;8.83;6.90;;;;;;;2.25;56.69;100724.56;6790407;29;20234;-86
2022/01/12 05:25:41;;;;;;;9.27;6.83;;;;;;;2.22;55.64;100728.28;6789851;29;20217;-83
2022/01/12 05:29:03;;;;;;;10.53;7.67;;;;;;;1.96;55.43;100737.19;6791128;29;20250;-82
2022/01/12 05:32:26;;;;;;;8.87;7.23;;;;;;;2.13;55.66;100726.25;6788913;29;20250;-85
2022/01/12 05:35:48;;;;;;;9.17;8.03;;;;;;;2.01;55.46;100720.94;6787299;29;20237;-85
2022/01/12 05:39:11;;;;;;;9.53;7.77;;;;;;;1.83;55.24;100740.81;6788545;29;20211;-86
2022/01/12 05:42:32;;;;;;;9.43;8.03;;;;;;;1.61;56.26;100751.16;6788936;29;20235;-84
2022/01/12 05:45:55;;;;;;;10.07;8.13;;;;;;;1.51;57.24;100727.00;6789624;29;20604;-86
2022/01/12 05:52:55;;;;;;;10.73;8.57;;;;;;;1.85;57.04;100755.69;6792733;29;20297;-86
2022/01/12 05:56:19;;;;;;;12.40;8.33;;;;;;;2.32;55.55;100732.03;6794494;29;20711;-85
2022/01/12 05:59:40;;;;;;;9.97;7.43;;;;;;;2.12;55.50;100735.19;6808069;29;20580;-84
2022/01/12 06:03:02;;;;;;;11.30;8.57;;;;;;;1.62;55.64;100739.56;6788815;29;20276;-85
2022/01/12 06:06:24;;;;;;;10.73;8.60;;;;;;;1.06;58.00;100724.69;6787392;29;20219;-86
2022/01/12 06:09:45;;;;;;;14.80;9.27;;;;;;;1.27;58.31;100768.47;6787851;29;20215;-84
2022/01/12 06:13:08;;;;;;;11.67;9.53;;;;;;;1.50;57.64;100765.16;6787777;29;20224;-84
2022/01/12 06:16:30;;;;;;;15.93;11.17;;;;;;;1.43;57.64;100723.13;6788632;29;20285;-86
2022/01/12 06:19:51;;;;;;;15.00;9.80;;;;;;;1.88;56.63;100770.56;6809958;29;20211;-85
2022/01/12 06:23:13;;;;;;;13.90;10.27;;;;;;;1.60;57.12;100733.50;6812985;29;20237;-83
2022/01/12 06:26:36;;;;;;;14.30;10.43;;;;;;;1.84;56.29;100772.59;6810289;29;20218;-85
2022/01/12 06:30:14;;;;;;;14.27;10.83;;;;;;;1.71;56.09;100734.47;6799994;29;20327;-85
2022/01/12 06:33:36;;;;;;;14.57;11.03;;;;;;;1.88;55.96;100787.41;6807258;29;20212;-84
2022/01/12 06:36:58;;;;;;;13.97;10.43;;;;;;;1.36;56.98;100767.03;6807016;29;20211;-86
2022/01/12 06:40:21;;;;;;;13.70;9.60;;;;;;;1.98;56.11;100772.53;6797164;29;20207;-85
2022/01/12 06:43:42;;;;;;;12.03;9.20;;;;;;;1.98;55.38;100772.53;6797523;29;20218;-85
2022/01/12 06:47:07;;;;;;;14.63;10.43;;;;;;;1.77;55.38;100784.59;6802744;29;20589;-84
2022/01/12 06:50:28;;;;;;;13.07;10.10;;;;;;;0.96;56.33;100704.13;6803795;29;20675;-84
2022/01/12 06:53:53;;;;;;;15.83;11.73;;;;;;;1.74;55.85;100787.47;6804282;29;20263;-82
2022/01/12 06:57:14;;;;;;;14.43;11.30;;;;;;;1.11;56.32;100669.47;6804477;29;20217;-85
2022/01/12 07:00:36;;;;;;;15.87;12.17;;;;;;;1.26;56.01;100787.16;6809820;29;20229;-84
2022/01/12 07:03:59;;;;;;;18.97;12.67;;;;;;;1.03;58.39;100780.66;6803984;29;20203;-85
2022/01/12 07:07:22;;;;;;;24.47;12.97;;;;;;;1.40;57.99;100782.66;6820387;29;20206;-83
2022/01/12 07:10:44;;;;;;;19.57;13.10;;;;;;;1.64;57.64;100781.03;6815786;29;20226;-85
2022/01/12 07:14:06;;;;;;;18.17;13.77;;;;;;;1.47;56.77;100760.03;6810707;29;20231;-82
2022/01/12 07:17:27;;;;;;;18.87;13.37;;;;;;;1.53;57.52;100788.88;6803016;29;20211;-84
2022/01/12 07:20:50;;;;;;;19.23;13.40;;;;;;;1.59;57.40;100799.09;6803947;29;20250;-85
2022/01/12 07:24:12;;;;;;;22.53;15.03;;;;;;;1.23;56.97;100723.56;6803535;29;20215;-83
2022/01/12 07:27:33;;;;;;;20.27;14.47;;;;;;;1.33;56.03;100685.69;6803429;29;20214;-86
2022/01/12 07:30:58;;;;;;;17.77;13.87;;;;;;;2.12;54.60;100766.28;6803252;29;20241;-85
2022/01/12 07:34:19;;;;;;;19.80;13.57;;;;;;;2.33;54.65;100786.94;6803079;29;20242;-86
2022/01/12 07:37:43;;;;;;;17.73;12.50;;;;;;;1.88;55.72;100815.78;6801899;29;20270;-85
2022/01/12 07:41:04;;;;;;;18.80;12.27;;;;;;;1.70;55.96;100801.03;6811044;29;20222;-83
2022/01/12 07:44:26;;;;;;;18.13;12.67;;;;;;;2.06;56.47;100818.09;6829101;29;20222;-85
2022/01/12 07:47:47;;;;;;;19.63;14.10;;;;;;;1.40;56.46;100700.28;6830204;29;20218;-85
2022/01/12 07:51:09;;;;;;;20.57;14.50;;;;;;;2.11;56.16;100793.81;6831899;29;20245;-85
2022/01/12 07:54:32;;;;;;;18.97;13.90;;;;;;;1.73;56.41;100768.94;6828682;29;20265;-83
2022/01/12 07:57:54;;;;;;;21.27;14.50;;;;;;;2.02;55.81;100810.41;6827458;29;20210;-84
2022/01/12 08:01:15;;;;;;;20.67;14.17;;;;;;;2.26;56.43;100856.66;6806410;29;20251;-84
2022/01/12 08:04:37;;;;;;;19.97;14.00;;;;;;;2.47;56.16;100853.41;6817475;29;20198;-83
2022/01/12 08:07:59;;;;;;;20.27;12.97;;;;;;;2.59;56.09;100859.72;6816285;29;20285;-86
2022/01/12 08:11:22;;;;;;;29.17;19.20;;;;;;;2.96;55.44;100881.00;6821835;29;20237;-85
2022/01/12 08:14:43;;;;;;;17.90;12.73;;;;;;;3.34;53.65;100857.84;6814269;29;20226;-81
2022/01/12 08:18:05;;;;;;;18.90;13.63;;;;;;;2.85;53.88;100845.44;6819610;29;20218;-84
2022/01/12 08:21:29;;;;;;;22.10;15.63;;;;;;;2.42;56.20;100887.47;6826810;29;20230;-85
2022/01/12 08:24:51;;;;;;;21.23;14.53;;;;;;;2.92;56.73;100882.19;6812878;29;20290;-84
2022/01/12 08:28:14;;;;;;;22.37;14.70;;;;;;;3.59;55.19;100881.78;6818001;29;20566;-85
2022/01/12 08:31:35;;;;;;;23.37;14.67;;;;;;;3.46;55.06;100824.09;6812968;29;20239;-84
2022/01/12 08:34:58;;;;;;;22.47;15.07;;;;;;;4.13;54.13;100872.38;6819667;29;20223;-83
2022/01/12 08:38:19;;;;;;;17.70;13.87;;;;;;;4.31;53.29;100896.88;6808471;29;20208;-81
2022/01/12 08:41:41;;;;;;;21.07;15.37;;;;;;;4.27;53.21;100860.69;6811210;29;20282;-81
2022/01/12 08:45:06;;;;;;;25.37;16.63;;;;;;;4.19;53.59;100889.78;6811730;29;20199;-82
2022/01/12 08:48:28;;;;;;;27.90;17.93;;;;;;;5.81;50.78;100876.88;6808283;29;20195;-82
2022/01/12 08:51:49;;;;;;;20.63;13.33;;;;;;;7.49;45.90;100886.47;6792150;29;20226;-82
2022/01/12 08:55:12;;;;;;;19.07;13.37;;;;;;;7.66;45.72;100851.78;6791678;29;20227;-83
2022/01/12 08:58:34;;;;;;;19.57;13.97;;;;;;;8.58;43.89;100873.72;6792300;29;20204;-82
2022/01/12 09:01:57;;;;;;;23.93;15.30;;;;;;;7.85;45.10;100878.66;6792814;29;20238;-82
2022/01/12 09:05:19;;;;;;;20.30;15.03;;;;;;;6.88;45.81;100882.91;6792465;29;20572;-82
2022/01/12 09:08:42;;;;;;;24.07;16.57;;;;;;;6.19;48.47;100867.41;6795141;29;20214;-82
2022/01/12 09:12:05;;;;;;;27.23;17.53;;;;;;;5.67;50.11;100863.75;6810662;29;20220;-82
2022/01/12 09:15:27;;;;;;;27.50;17.70;;;;;;;5.49;51.31;100892.00;6791518;29;20231;-82
2022/01/12 09:18:50;;;;;;;24.63;17.13;;;;;;;5.39;50.76;100875.84;6792422;29;20216;-83
2022/01/12 09:22:12;;;;;;;19.33;14.73;;;;;;;5.43;51.34;100900.50;6792020;29;20231;-86
2022/01/12 09:25:38;;;;;;;22.63;16.03;;;;;;;5.34;51.58;100909.25;6791064;29;20205;-83
2022/01/12 09:29:02;;;;;;;18.77;13.60;;;;;;;5.19;51.57;100900.59;6792394;29;20191;-83
2022/01/12 09:32:23;;;;;;;15.40;12.07;;;;;;;5.92;50.83;100930.41;6799688;29;20729;-83
2022/01/12 09:35:49;;;;;;;16.60;12.20;;;;;;;5.94;49.96;100904.34;6810628;29;20782;-83
2022/01/12 09:39:11;;;;;;;12.43;10.43;;;;;;;6.82;48.01;100909.38;6801341;29;20207;-83
2022/01/12 09:42:33;;;;;;;13.97;10.03;;;;;;;6.98;47.13;100897.25;6797075;29;20220;-83
2022/01/12 09:45:55;;;;;;;13.17;10.37;;;;;;;6.81;47.17;100887.09;6802760;29;20296;-83
2022/01/12 09:49:17;;;;;;;14.50;11.20;;;;;;;6.72;47.94;100892.41;6798357;29;20203;-83
2022/01/12 09:52:40;;;;;;;14.50;10.87;;;;;;;5.96;48.33;100905.94;6818303;29;20244;-82
2022/01/12 09:56:02;;;;;;;13.53;10.57;;;;;;;6.23;49.44;100922.44;6817493;29;20241;-82
2022/01/12 09:59:24;;;;;;;11.97;10.00;;;;;;;7.00;46.30;100900.63;6804435;29;20220;-81
2022/01/12 10:02:46;;;;;;;12.33;10.63;;;;;;;6.05;47.68;100939.16;6791324;29;20281;-81
2022/01/12 10:06:16;;;;;;;12.90;10.13;;;;;;;6.56;47.26;100932.19;6791110;29;20207;-81
2022/01/12 10:09:40;;;;;;;13.17;10.33;;;;;;;5.66;49.29;100940.50;6791399;29;20231;-84
2022/01/12 10:13:02;;;;;;;14.27;11.50;;;;;;;5.53;50.58;100926.41;6791328;29;20237;-81
2022/01/12 10:16:26;;;;;;;14.57;11.43;;;;;;;5.44;50.92;100927.16;6790657;29;20231;-83
2022/01/12 10:19:48;;;;;;;12.40;10.50;;;;;;;5.51;50.11;100925.69;6790766;29;20244;-83
2022/01/12 10:23:11;;;;;;;13.70;10.80;;;;;;;6.11;47.95;100912.72;6790794;29;20240;-83
2022/01/12 10:26:37;;;;;;;14.03;10.83;;;;;;;6.15;48.54;100916.00;6791658;29;20563;-82
2022/01/12 10:30:00;;;;;;;12.97;10.57;;;;;;;6.03;48.63;100917.00;6792277;29;20310;-82
2022/01/12 10:33:24;;;;;;;13.57;10.17;;;;;;;6.30;48.25;100920.13;6791971;29;20242;-82
2022/01/12 10:36:47;;;;;;;13.17;10.17;;;;;;;5.30;49.79;100942.56;6791873;29;20235;-83
2022/01/12 10:40:10;;;;;;;12.97;9.70;;;;;;;5.25;49.86;100926.88;6791871;29;20213;-83
2022/01/12 10:43:36;;;;;;;12.50;10.63;;;;;;;5.75;48.29;100950.50;6792011;29;20234;-82
2022/01/12 14:05:04;;;;;;;12.57;9.13;;;;;;;7.94;43.15;100871.63;6787375;29;20220;-83
2022/01/12 14:13:28;;;;;;;12.03;10.17;;;;;;;6.75;46.68;100873.34;6792345;29;20209;-84
2022/01/12 14:21:13;;;;;;;12.50;9.90;;;;;;;6.59;46.71;100873.81;6762549;29;20751;-87
2022/01/12 14:28:51;;;;;;;12.27;9.93;;;;;;;6.63;46.39;100804.72;6764783;29;20207;-83
2022/01/12 14:32:14;;;;;;;9.80;8.37;;;;;;;7.14;45.24;100860.03;6790281;29;20687;-82
2022/01/12 14:35:36;;;;;;;10.87;9.67;;;;;;;7.45;45.18;100836.75;6791247;29;20240;-82
2022/01/12 14:43:29;;;;;;;10.37;9.27;;;;;;;7.83;44.74;100869.91;6799045;29;20213;-86
2022/01/12 14:47:02;;;;;;;10.17;8.57;;;;;;;7.43;44.46;100811.88;6796071;29;20224;-85
2022/01/12 14:50:34;;;;;;;11.07;9.23;;;;;;;7.55;45.37;100829.56;6800085;29;20212;-86
2022/01/12 14:53:56;;;;;;;10.87;9.00;;;;;;;6.96;45.56;100852.75;6806236;29;20263;-85
2022/01/12 14:57:18;;;;;;;11.33;9.23;;;;;;;6.96;46.38;100840.19;6804967;29;20238;-84
2022/01/12 15:00:40;;;;;;;11.37;9.37;;;;;;;7.03;45.84;100886.09;6800315;29;20212;-84
2022/01/12 15:04:03;;;;;;;12.10;10.07;;;;;;;7.02;46.52;100892.47;6797504;29;20262;-85
2022/01/12 15:07:25;;;;;;;10.83;8.80;;;;;;;7.34;45.51;100882.44;6815947;29;20603;-87
2022/01/12 15:10:47;;;;;;;13.53;9.87;;;;;;;6.96;45.62;100853.59;6810690;29;20570;-85
2022/01/12 15:14:28;;;;;;;12.70;10.20;;;;;;;5.48;47.98;100784.13;6811210;29;20216;-87
2022/01/12 15:17:51;;;;;;;13.77;10.37;;;;;;;5.42;49.30;100885.44;6817911;29;20254;-85
2022/01/12 15:21:15;;;;;;;13.03;9.47;;;;;;;5.99;49.08;100891.44;6827102;29;20221;-85
2022/01/12 15:24:36;;;;;;;11.63;9.67;;;;;;;6.04;48.78;100873.19;6826431;29;20232;-85
2022/01/12 15:28:00;;;;;;;10.87;9.70;;;;;;;6.03;48.26;100898.25;6823027;29;20237;-86
2022/01/12 15:31:22;;;;;;;11.73;10.30;;;;;;;5.57;49.46;100893.09;6825293;29;20217;-89
2022/01/12 15:34:44;;;;;;;12.10;9.40;;;;;;;5.60;49.18;100903.53;6816879;29;20204;-87
2022/01/12 15:38:09;;;;;;;12.67;9.93;;;;;;;5.73;48.70;100869.44;6827194;29;20236;-88
2022/01/12 15:41:31;;;;;;;12.17;9.77;;;;;;;4.87;49.54;100807.88;6815306;29;20227;-89
2022/01/12 15:44:53;;;;;;;13.77;11.20;;;;;;;5.49;50.24;100910.72;6812579;28;20230;-88
2022/01/12 15:48:15;;;;;;;13.67;10.60;;;;;;;4.90;50.49;100843.22;6832297;29;20238;-86
2022/01/12 15:51:38;;;;;;;12.87;11.47;;;;;;;5.13;51.19;100908.28;6830241;29;20207;-86
2022/01/12 15:55:01;;;;;;;16.30;10.60;;;;;;;5.07;50.38;100829.38;6829849;29;20212;-87
2022/01/12 15:58:23;;;;;;;15.33;11.10;;;;;;;5.56;49.76;100856.59;6827168;29;20236;-88
2022/01/12 16:01:48;;;;;;;12.80;10.57;;;;;;;6.14;49.04;100883.00;6827405;29;20203;-89
2022/01/12 16:05:09;;;;;;;12.60;10.83;;;;;;;6.26;48.47;100884.66;6825152;29;20223;-88
2022/01/12 16:08:32;;;;;;;13.37;10.60;;;;;;;5.97;49.50;100894.28;6829684;29;20226;-87
2022/01/12 16:11:55;;;;;;;17.13;12.43;;;;;;;5.57;50.06;100893.09;6829588;29;20213;-87
2022/01/12 16:15:17;;;;;;;13.47;11.60;;;;;;;6.13;49.31;100900.06;6831619;29;20258;-86
2022/01/12 16:18:48;;;;;;;13.80;11.53;;;;;;;6.34;48.38;100894.75;6834991;29;20219;-86
2022/01/12 16:22:13;;;;;;;15.17;12.93;;;;;;;6.04;48.69;100870.50;6808928;29;20224;-85
2022/01/12 16:25:35;;;;;;;22.30;14.83;;;;;;;6.35;51.66;100902.66;6804038;29;20231;-89
2022/01/12 16:29:09;;;;;;;15.83;12.90;;;;;;;6.65;48.78;100905.44;6804450;29;20206;-92
2022/01/12 16:32:31;;;;;;;14.23;11.40;;;;;;;6.07;48.35;100884.50;6801073;29;20211;-89
2022/01/12 16:35:53;;;;;;;14.40;12.33;;;;;;;6.17;48.57;100903.31;6803932;29;20242;-89
2022/01/12 16:39:15;;;;;;;15.90;12.80;;;;;;;6.26;48.37;100898.06;6805066;29;20196;-88
2022/01/12 16:42:37;;;;;;;13.33;11.03;;;;;;;5.81;47.65;100828.72;6800167;29;20215;-89
2022/01/12 16:46:01;;;;;;;15.73;11.87;;;;;;;5.77;48.30;100921.75;6811183;23;20537;-79
2022/01/12 16:49:23;;;;;;;17.27;13.27;;;;;;;5.77;49.16;100926.28;6802068;29;20230;-79
2022/01/12 16:52:44;;;;;;;18.97;13.93;;;;;;;5.87;49.13;100925.44;6817615;29;20221;-79
2022/01/12 16:56:08;;;;;;;23.57;15.00;;;;;;;5.63;49.59;100929.19;6798982;29;20708;-79
2022/01/12 16:59:30;;;;;;;19.63;16.10;;;;;;;5.69;49.85;100956.34;6804254;29;20216;-80
2022/01/12 17:02:53;;;;;;;16.83;12.77;;;;;;;5.19;49.87;100887.22;6800700;29;20206;-79
2022/01/12 17:06:18;;;;;;;16.63;13.53;;;;;;;5.67;49.90;100952.91;6793618;29;20294;-78
2022/01/12 17:09:40;;;;;;;17.93;13.00;;;;;;;5.52;50.00;100953.28;6791536;29;20223;-76
2022/01/12 17:13:02;;;;;;;18.20;13.30;;;;;;;4.96;50.94;100962.19;6791893;29;20216;-77
2022/01/12 17:17:01;;;;;;;20.67;15.63;;;;;;;4.94;51.27;100962.31;6792220;29;20231;-80
2022/01/12 17:20:24;;;;;;;22.50;16.70;;;;;;;4.75;52.34;100955.78;6790277;29;20215;-78
2022/01/12 17:23:51;;;;;;;20.23;13.23;;;;;;;4.69;52.13;100926.88;6789981;29;20203;-80
2022/01/12 17:27:18;;;;;;;21.03;15.53;;;;;;;4.44;52.72;100881.63;6757337;29;20204;-80
2022/01/12 17:30:39;;;;;;;18.93;13.93;;;;;;;4.65;52.28;100961.00;6789436;29;20358;-80
2022/01/12 17:34:01;;;;;;;21.53;15.97;;;;;;;4.67;52.48;100972.41;6789845;29;20212;-80
2022/01/12 17:37:25;;;;;;;20.83;16.17;;;;;;;4.56;52.37;100929.63;6790369;29;20231;-80
2022/01/12 17:40:48;;;;;;;23.20;17.20;;;;;;;4.95;51.53;100981.88;6794144;29;20222;-77
2022/01/12 17:44:10;;;;;;;20.67;16.07;;;;;;;4.70;51.85;100957.97;6789342;29;20247;-77
2022/01/12 17:47:33;;;;;;;21.43;16.00;;;;;;;4.81;51.54;100988.25;6771797;29;20232;-77
2022/01/12 17:50:54;;;;;;;20.53;16.40;;;;;;;3.64;53.34;100943.66;6763291;29;20386;-78
2022/01/12 17:54:22;;;;;;;27.17;18.27;;;;;;;4.08;54.16;100994.66;6762639;29;20218;-78
2022/01/12 17:57:44;;;;;;;31.43;21.50;;;;;;;4.18;54.31;100993.03;6762409;29;20275;-78
2022/01/12 18:01:06;;;;;;;26.00;16.60;;;;;;;4.33;53.20;100986.59;6762464;29;20220;-77
2022/01/12 18:04:28;;;;;;;22.67;16.47;;;;;;;4.26;53.54;100993.31;6762483;29;20568;-77
2022/01/12 18:07:51;;;;;;;25.60;16.60;;;;;;;4.27;52.99;101003.06;6762749;29;20215;-77
2022/01/12 18:11:14;;;;;;;25.27;16.73;;;;;;;4.44;52.66;100992.00;6762474;29;20208;-77
2022/01/12 18:14:36;;;;;;;21.67;15.80;;;;;;;4.44;51.89;100983.09;6761643;29;20315;-77
2022/01/12 18:18:00;;;;;;;19.17;14.63;;;;;;;4.40;52.67;101003.00;6761947;29;20259;-77
2022/01/12 18:21:23;;;;;;;24.73;16.03;;;;;;;4.11;52.98;100985.56;6762126;29;20232;-77
2022/01/12 18:24:46;;;;;;;26.13;16.03;;;;;;;3.90;52.65;100949.78;6761310;29;20201;-77
2022/01/12 18:28:09;;;;;;;27.63;18.33;;;;;;;3.96;53.96;101021.41;6761994;29;20219;-77
2022/01/12 18:31:31;;;;;;;26.53;18.70;;;;;;;4.01;53.39;101006.75;6761867;29;20219;-77
2022/01/12 18:34:54;;;;;;;27.03;19.37;;;;;;;4.14;53.48;101009.38;6761065;29;20215;-77
2022/01/12 18:38:16;;;;;;;29.27;24.27;;;;;;;4.20;53.08;100999.09;6761365;29;20231;-77
2022/01/12 18:41:38;;;;;;;25.77;16.97;;;;;;;3.80;53.18;100943.41;6763281;29;20579;-77
2022/01/12 18:45:01;;;;;;;29.27;18.63;;;;;;;3.91;53.87;100992.38;6767219;29;20214;-77
2022/01/12 18:48:23;;;;;;;32.50;21.03;;;;;;;3.88;53.39;100994.38;6767251;29;20246;-77
2022/01/12 18:51:45;;;;;;;24.40;18.77;;;;;;;3.62;53.91;100995.41;6767454;29;20222;-77
2022/01/12 18:55:08;;;;;;;23.53;16.23;;;;;;;3.83;54.21;101017.91;6767297;29;20681;-77
2022/01/12 18:58:29;;;;;;;19.50;14.90;;;;;;;3.46;54.77;100981.44;6766742;29;20235;-78
2022/01/12 19:01:53;;;;;;;20.23;14.47;;;;;;;3.18;55.15;100974.50;6767176;29;20669;-77
2022/01/12 19:05:16;;;;;;;25.60;16.53;;;;;;;3.34;55.30;101023.16;6766676;29;20207;-78
2022/01/12 19:08:37;;;;;;;22.77;16.87;;;;;;;3.49;55.55;101007.88;6767165;29;20591;-78
2022/01/12 19:11:59;;;;;;;20.63;16.17;;;;;;;3.53;54.99;101007.56;6766070;29;20218;-77
2022/01/12 19:15:21;;;;;;;22.13;15.53;;;;;;;3.73;54.53;101030.19;6765646;29;20211;-78
2022/01/12 19:18:44;;;;;;;18.77;14.43;;;;;;;3.88;54.27;101019.25;6766833;29;20231;-77
2022/01/12 19:22:06;;;;;;;36.33;22.10;;;;;;;3.69;53.64;101004.66;6766716;29;20245;-77
2022/01/12 19:25:27;;;;;;;22.57;15.53;;;;;;;3.75;54.40;101026.44;6766471;29;20568;-78
2022/01/12 19:28:49;;;;;;;21.10;16.70;;;;;;;3.23;53.94;101022.16;6766355;29;20218;-78
2022/01/12 19:32:11;;;;;;;20.53;15.60;;;;;;;3.45;54.69;101004.59;6766052;29;20226;-78
2022/01/12 19:35:34;;;;;;;22.00;16.50;;;;;;;2.93;54.91;100981.63;6765409;29;20239;-78
2022/01/12 19:38:56;;;;;;;24.50;18.27;;;;;;;2.76;56.04;101003.19;6765903;29;20231;-77
2022/01/12 19:42:18;;;;;;;39.43;26.20;;;;;;;3.25;55.56;101007.75;6765542;29;20215;-78
2022/01/12 19:45:40;;;;;;;31.93;20.67;;;;;;;3.37;55.70;101006.91;6765383;29;20219;-78
2022/01/12 19:49:05;;;;;;;29.40;20.57;;;;;;;3.37;55.21;101006.91;6765819;29;20230;-78
2022/01/12 19:52:33;;;;;;;26.83;17.03;;;;;;;3.15;54.97;101008.50;6748641;29;20591;-78
2022/01/12 19:55:59;;;;;;;25.90;17.90;;;;;;;2.87;55.39;100964.25;6764570;29;20540;-77
2022/01/12 19:59:25;;;;;;;23.97;15.47;;;;;;;2.80;56.42;101016.25;6765374;29;20305;-78
2022/01/12 20:02:57;;;;;;;35.00;24.37;;;;;;;2.95;55.99;101039.16;6765350;29;20208;-78
2022/01/12 20:06:18;;;;;;;30.57;18.47;;;;;;;3.12;55.61;101043.38;6748313;29;20571;-78
2022/01/12 20:09:43;;;;;;;21.93;15.50;;;;;;;2.96;55.97;101059.53;6784255;29;20211;-79
2022/01/12 20:13:06;;;;;;;22.50;14.93;;;;;;;2.88;55.73;101053.00;6771386;29;20230;-78
2022/01/12 20:16:39;;;;;;;22.03;15.47;;;;;;;3.08;54.79;101056.03;6746569;29;20228;-79
2022/01/12 20:24:26;;;;;;;27.23;18.73;;;;;;;3.06;55.04;101075.75;6764305;29;20211;-79
2022/01/12 20:27:49;;;;;;;21.43;14.43;;;;;;;3.34;54.63;101070.25;6765500;29;20222;-78
2022/01/12 20:31:11;;;;;;;20.80;15.23;;;;;;;3.12;54.25;101035.38;6765005;29;20693;-79
2022/01/12 20:34:33;;;;;;;21.53;15.33;;;;;;;3.21;54.50;101078.25;6765033;29;20212;-79
2022/01/12 20:37:55;;;;;;;24.47;16.63;;;;;;;2.83;53.72;101074.63;6764863;29;20234;-78
2022/01/12 20:41:16;;;;;;;27.93;18.33;;;;;;;2.59;54.86;101062.09;6765120;29;20215;-78
2022/01/12 20:44:40;;;;;;;32.00;19.37;;;;;;;2.77;55.33;101060.88;6765099;29;20215;-79
2022/01/12 20:48:02;;;;;;;31.77;20.30;;;;;;;2.75;55.18;101042.31;6765391;29;20223;-79
2022/01/12 20:51:23;;;;;;;27.97;19.20;;;;;;;2.80;54.82;101045.53;6764766;29;20231;-78
2022/01/12 20:54:45;;;;;;;28.87;19.60;;;;;;;2.55;54.82;101056.06;6764579;29;20654;-78
2022/01/12 20:58:07;;;;;;;25.27;17.57;;;;;;;2.48;54.99;101081.41;6764526;29;20238;-77
2022/01/12 21:01:30;;;;;;;26.93;17.70;;;;;;;1.50;57.06;101075.28;6764126;29;20240;-77
2022/01/12 21:04:53;;;;;;;26.40;17.60;;;;;;;2.29;56.23;101058.72;6763259;29;20645;-77
2022/01/12 21:08:15;;;;;;;27.07;18.53;;;;;;;2.52;56.62;101074.06;6764045;29;20203;-76
2022/01/12 21:11:37;;;;;;;26.27;17.73;;;;;;;2.31;56.14;101078.97;6779934;29;20235;-77
2022/01/12 21:14:58;;;;;;;30.77;18.67;;;;;;;2.30;56.58;101079.91;6788767;29;20218;-78
2022/01/12 21:18:22;;;;;;;29.43;20.13;;;;;;;2.18;56.46;101051.41;6789600;29;20638;-77
2022/01/12 21:21:43;;;;;;;39.20;26.17;;;;;;;2.63;56.00;101090.19;6772543;29;20685;-76
2022/01/12 21:25:07;;;;;;;29.83;19.50;;;;;;;2.45;55.89;101056.78;6763557;29;20212;-78
2022/01/12 21:28:29;;;;;;;26.23;18.23;;;;;;;2.89;55.34;101090.19;6730883;29;20215;-77
2022/01/12 21:31:51;;;;;;;26.43;17.47;;;;;;;2.93;54.46;101078.41;6763025;29;20215;-76
2022/01/12 21:35:21;;;;;;;25.90;17.27;;;;;;;2.86;54.56;101081.56;6768077;29;20204;-77
2022/01/12 21:43:55;;;;;;;33.10;20.30;;;;;;;1.07;56.77;100964.59;6768803;29;20168;-90
2022/01/12 21:56:54;;;;;;;26.07;17.07;;;;;;;2.67;54.82;101113.88;6496375;30;20276;-92
